createdAt,value
2022-10-01T00:13:00.217Z,21.8
2022-10-01T00:28:34.847Z,21.8
2022-10-01T00:44:09.447Z,21.7
2022-10-01T00:59:44.129Z,21.7
2022-10-01T01:15:18.676Z,21.7
2022-10-01T01:30:53.621Z,21.7
2022-10-01T01:46:28.327Z,21.7
2022-10-01T02:02:04.219Z,21.7
2022-10-01T02:17:38.852Z,21.7
2022-10-01T02:33:13.428Z,21.7
2022-10-01T02:48:48.286Z,21.7
2022-10-01T03:04:22.835Z,21.7
2022-10-01T03:19:57.390Z,21.7
2022-10-01T03:35:31.992Z,21.7
2022-10-01T03:51:06.546Z,21.7
2022-10-01T04:06:41.120Z,21.7
2022-10-01T04:22:15.722Z,21.7
2022-10-01T04:37:50.056Z,21.8
2022-10-01T04:53:24.642Z,21.9
2022-10-01T05:08:59.652Z,21.9
2022-10-01T05:24:34.199Z,21.9
2022-10-01T05:40:09.026Z,21.9
2022-10-01T05:55:43.571Z,21.9
2022-10-01T06:11:18.128Z,21.9
2022-10-01T06:26:52.691Z,21.9
2022-10-01T06:42:27.334Z,21.9
2022-10-01T06:58:01.950Z,21.9
2022-10-01T07:13:36.508Z,21.9
2022-10-01T07:29:11.062Z,21.9
2022-10-01T07:44:45.694Z,21.8
2022-10-01T08:00:23.423Z,21.7
2022-10-01T08:15:58.005Z,21.7
2022-10-01T08:31:34.490Z,21.7
2022-10-01T08:47:09.243Z,21.7
2022-10-01T09:02:43.818Z,21.7
2022-10-01T09:18:18.520Z,21.7
2022-10-01T09:33:53.086Z,21.7
2022-10-01T09:49:27.699Z,21.7
2022-10-01T10:05:02.394Z,21.7
2022-10-01T10:20:37.199Z,21.7
2022-10-01T10:36:11.768Z,21.7
2022-10-01T10:51:46.489Z,21.8
2022-10-01T11:07:21.063Z,21.9
2022-10-01T11:22:55.663Z,21.9
2022-10-01T11:38:30.322Z,21.9
2022-10-01T11:54:05.148Z,21.9
2022-10-01T12:09:39.733Z,21.9
2022-10-01T12:25:14.416Z,21.9
2022-10-01T12:40:49.108Z,22
2022-10-01T12:56:23.663Z,22
2022-10-01T13:11:58.640Z,22.1
2022-10-01T13:27:33.237Z,22.1
2022-10-01T13:43:07.908Z,22.1
2022-10-01T13:58:42.524Z,22
2022-10-01T14:14:17.368Z,22
2022-10-01T14:29:52.021Z,22
2022-10-01T14:45:26.591Z,22
2022-10-01T15:01:01.159Z,22
2022-10-01T15:16:37.847Z,22.1
2022-10-01T15:32:12.698Z,22.1
2022-10-01T15:47:47.464Z,22.1
2022-10-01T16:03:22.323Z,22.1
2022-10-01T16:18:56.893Z,22.1
2022-10-01T16:34:31.468Z,22.2
2022-10-01T16:50:06.036Z,22.3
2022-10-01T17:05:40.623Z,22.3
2022-10-01T17:21:15.198Z,22.3
2022-10-01T17:36:49.771Z,22.2
2022-10-01T17:52:24.180Z,22.2
2022-10-01T18:07:58.740Z,22.2
2022-10-01T18:23:33.423Z,22.1
2022-10-01T18:39:08.391Z,22.1
2022-10-01T18:54:43.070Z,22.1
2022-10-01T19:10:17.667Z,22.1
2022-10-01T19:25:52.319Z,22.1
2022-10-01T19:41:26.901Z,22.1
2022-10-01T19:57:01.950Z,22.1
2022-10-01T20:12:36.518Z,22
2022-10-01T20:28:16.909Z,22
2022-10-01T20:43:51.709Z,22
2022-10-01T20:59:26.501Z,22
2022-10-01T21:15:01.139Z,22
2022-10-01T21:30:35.727Z,21.9
2022-10-01T21:46:10.842Z,21.9
2022-10-01T22:01:45.920Z,21.9
2022-10-01T22:17:20.598Z,21.9
2022-10-01T22:32:55.200Z,22
2022-10-01T22:48:29.778Z,22
2022-10-01T23:04:04.360Z,22.1
2022-10-01T23:19:38.968Z,22.2
2022-10-01T23:35:13.573Z,22.3
2022-10-01T23:50:48.161Z,22.4
